Time;durP1;ratioP1;P1;durP2;ratioP2;P2;SDS_P1;SDS_P2;PMS_P1;PMS_P2;Temp;Humidity;BMP_temperature;BMP_pressure;BME280_temperature;BME280_humidity;BME280_pressure;Samples;Min_cycle;Max_cycle;Signal;HPM_P1;HPM_P2
2022/04/20 00:03:01;;;;;;;26.40;15.20;;;;;;;5.35;52.72;98834.40;233599;1217;140038;-62
2022/04/20 00:08:05;;;;;;;28.10;16.70;;;;;;;5.31;52.95;98834.77;233006;1217;139307;-59
2022/04/20 00:13:08;;;;;;;36.30;20.50;;;;;;;5.22;52.63;98831.46;233565;1217;138788;-62
2022/04/20 00:18:12;;;;;;;37.70;21.90;;;;;;;5.14;53.01;98830.76;233014;1217;138540;-61
2022/04/20 00:23:15;;;;;;;38.80;22.40;;;;;;;5.05;53.04;98825.71;233342;1217;140312;-62
2022/04/20 00:28:18;;;;;;;38.00;22.70;;;;;;;4.94;53.11;98825.45;231656;1217;138576;-58
2022/04/20 00:33:21;;;;;;;35.40;20.80;;;;;;;4.90;53.34;98824.77;232744;1217;141951;-63
2022/04/20 00:38:24;;;;;;;34.70;21.10;;;;;;;4.84;53.71;98831.86;233662;1217;138550;-62
2022/04/20 00:43:28;;;;;;;34.40;21.40;;;;;;;4.81;53.67;98832.86;233539;1217;139073;-63
2022/04/20 00:48:35;;;;;;;32.70;20.70;;;;;;;4.79;53.92;98831.55;233510;1217;138354;-64
2022/04/20 00:53:39;;;;;;;36.10;20.20;;;;;;;4.78;54.07;98837.23;233092;1217;139320;-64
2022/04/20 00:58:44;;;;;;;39.10;20.80;;;;;;;4.78;54.15;98836.87;233503;1217;138777;-64
2022/04/20 01:03:47;;;;;;;35.80;20.50;;;;;;;4.76;54.26;98837.50;233642;1217;138934;-64
2022/04/20 01:08:50;;;;;;;26.40;16.10;;;;;;;4.71;54.36;98835.02;233541;1217;139061;-66
2022/04/20 01:14:01;;;;;;;29.70;16.60;;;;;;;4.75;54.02;98828.01;233658;1217;139240;-66
2022/04/20 01:19:16;;;;;;;31.00;16.50;;;;;;;4.83;54.17;98826.64;233591;1217;139524;-63
2022/04/20 01:24:19;;;;;;;24.30;14.70;;;;;;;4.89;53.88;98826.94;233586;1217;138441;-62
2022/04/20 01:29:34;;;;;;;23.30;14.40;;;;;;;4.92;53.74;98822.91;233464;1217;139701;-65
2022/04/20 01:34:52;;;;;;;22.60;14.70;;;;;;;4.96;53.77;98818.34;233477;1217;138876;-64
2022/04/20 01:39:56;;;;;;;24.50;14.60;;;;;;;5.00;53.61;98818.35;233537;1217;139047;-64
2022/04/20 01:45:01;;;;;;;23.60;13.90;;;;;;;5.01;53.44;98814.61;233577;1217;139787;-62
2022/04/20 01:50:17;;;;;;;26.20;15.00;;;;;;;5.01;53.27;98809.19;233404;1219;139264;-61
2022/04/20 01:55:48;;;;;;;20.20;13.30;;;;;;;5.02;53.40;98808.77;232304;1219;139590;-60
2022/04/20 02:06:32;;;;;;;23.70;14.30;;;;;;;4.98;53.00;98799.79;233515;1217;139153;-63
2022/04/20 02:11:38;;;;;;;22.60;14.50;;;;;;;4.94;53.14;98795.37;233362;1217;138467;-60
2022/04/20 02:16:49;;;;;;;24.50;14.40;;;;;;;4.91;53.10;98798.52;231144;1217;139393;-60
2022/04/20 02:22:19;;;;;;;24.70;14.20;;;;;;;4.87;52.99;98786.91;233240;1217;138873;-62
2022/04/20 02:27:22;;;;;;;27.00;14.80;;;;;;;4.83;53.13;98777.58;233593;1217;138769;-62
2022/04/20 02:32:25;;;;;;;23.60;14.70;;;;;;;4.77;53.10;98770.14;233684;1217;140029;-60
2022/04/20 02:37:29;;;;;;;22.60;13.80;;;;;;;4.70;53.23;98770.06;232859;1217;139085;-61
2022/04/20 02:42:32;;;;;;;24.40;13.80;;;;;;;4.65;53.31;98769.23;232933;1217;139472;-61
2022/04/20 02:47:35;;;;;;;29.80;16.20;;;;;;;4.64;53.19;98770.35;233679;1217;138486;-61
2022/04/20 02:52:38;;;;;;;26.10;14.90;;;;;;;4.59;53.31;98774.40;233483;1217;138849;-61
2022/04/20 02:57:42;;;;;;;26.30;15.40;;;;;;;4.53;53.49;98776.27;233506;1217;138805;-64
2022/04/20 03:02:46;;;;;;;28.60;16.10;;;;;;;4.50;53.43;98779.71;233661;1217;138536;-63
2022/04/20 03:07:49;;;;;;;28.80;17.00;;;;;;;4.47;53.32;98784.94;233525;1217;138988;-61
2022/04/20 03:12:53;;;;;;;27.90;16.70;;;;;;;4.42;53.45;98785.45;233479;1217;139524;-63
2022/04/20 03:17:57;;;;;;;26.40;16.00;;;;;;;4.38;53.66;98777.02;233515;1217;138574;-62
2022/04/20 03:23:01;;;;;;;33.30;16.90;;;;;;;4.32;53.71;98773.59;233838;1217;138610;-63
2022/04/20 03:28:04;;;;;;;28.40;16.90;;;;;;;4.28;53.66;98774.46;233474;1217;138518;-64
2022/04/20 03:33:08;;;;;;;29.00;17.20;;;;;;;4.22;53.97;98775.41;233333;1217;139118;-61
2022/04/20 03:38:12;;;;;;;27.90;17.30;;;;;;;4.19;54.14;98778.34;233710;1217;138275;-63
2022/04/20 03:43:15;;;;;;;32.10;17.00;;;;;;;4.16;54.14;98775.66;233549;1217;139625;-62
2022/04/20 03:48:18;;;;;;;31.70;17.60;;;;;;;4.12;54.48;98781.98;233394;1217;138558;-63
2022/04/20 03:53:21;;;;;;;27.00;17.50;;;;;;;4.11;54.52;98777.63;233510;1217;138993;-60
2022/04/20 03:58:26;;;;;;;28.00;17.60;;;;;;;4.10;54.55;98780.96;233471;1217;138559;-61
2022/04/20 04:03:29;;;;;;;30.50;17.90;;;;;;;4.12;54.68;98784.43;233278;1217;141039;-60
2022/04/20 04:08:37;;;;;;;30.70;18.30;;;;;;;4.14;54.68;98792.41;233665;1217;138997;-61
2022/04/20 04:13:41;;;;;;;29.10;17.50;;;;;;;4.12;54.92;98792.48;233531;1217;138947;-61
2022/04/20 04:18:45;;;;;;;26.80;17.30;;;;;;;4.09;54.85;98798.94;233607;1217;139225;-63
2022/04/20 04:23:49;;;;;;;33.30;18.60;;;;;;;4.09;55.05;98801.23;233493;1217;138996;-61
2022/04/20 04:29:06;;;;;;;33.30;17.70;;;;;;;4.09;55.17;98803.86;233529;1217;138562;-61
2022/04/20 04:34:10;;;;;;;33.50;19.00;;;;;;;4.07;55.25;98803.05;233184;1217;139493;-60
2022/04/20 04:39:17;;;;;;;37.70;20.90;;;;;;;4.11;55.36;98804.83;233608;1216;139954;-61
2022/04/20 04:44:20;;;;;;;42.60;25.90;;;;;;;4.16;55.74;98806.01;233684;1215;139196;-59
2022/04/20 04:49:24;;;;;;;46.80;26.10;;;;;;;4.22;56.00;98808.75;233035;1217;138566;-61
2022/04/20 04:54:30;;;;;;;46.50;27.90;;;;;;;4.34;56.20;98804.23;233447;1217;139246;-63
2022/04/20 04:59:38;;;;;;;51.90;27.40;;;;;;;4.41;56.47;98794.27;233599;1217;138735;-63
2022/04/20 05:04:41;;;;;;;50.60;29.80;;;;;;;4.46;56.57;98796.20;233528;1217;138684;-64
2022/04/20 05:09:45;;;;;;;46.80;29.80;;;;;;;4.51;56.86;98796.69;233550;1217;139250;-62
2022/04/20 05:14:49;;;;;;;54.50;32.20;;;;;;;4.62;56.86;98797.45;233638;1215;139108;-61
2022/04/20 05:19:52;;;;;;;58.80;35.90;;;;;;;4.73;56.97;98794.58;233457;1217;138980;-63
2022/04/20 05:24:58;;;;;;;54.50;34.20;;;;;;;4.81;57.02;98792.46;233451;1217;138971;-63
2022/04/20 05:30:02;;;;;;;101.50;67.90;;;;;;;4.87;57.36;98790.45;233713;1217;139792;-61
2022/04/20 05:35:06;;;;;;;69.40;41.60;;;;;;;4.99;57.54;98788.52;233537;1217;141123;-64
2022/04/20 05:45:31;;;;;;;58.10;36.30;;;;;;;5.12;57.32;98788.85;233525;1217;138825;-62
2022/04/20 05:50:52;;;;;;;65.20;38.70;;;;;;;5.16;57.28;98790.95;233651;1217;138555;-63
2022/04/20 05:55:57;;;;;;;70.40;39.90;;;;;;;5.19;57.20;98781.80;232942;1217;139290;-61
2022/04/20 06:01:00;;;;;;;70.90;43.90;;;;;;;5.28;57.87;98781.80;233623;1217;138995;-63
2022/04/20 06:06:18;;;;;;;72.40;43.90;;;;;;;5.35;57.81;98780.59;233550;1217;138832;-61
2022/04/20 06:11:26;;;;;;;75.40;46.40;;;;;;;5.39;57.57;98775.98;233156;1216;138825;-65
2022/04/20 06:16:29;;;;;;;83.60;48.80;;;;;;;5.39;57.87;98775.45;233134;1217;139052;-65
2022/04/20 06:22:00;;;;;;;78.50;48.90;;;;;;;5.45;57.80;98772.76;233504;1217;139150;-61
2022/04/20 06:27:31;;;;;;;88.90;48.20;;;;;;;5.48;58.03;98771.91;233341;1218;139645;-60
2022/04/20 06:32:52;;;;;;;81.50;50.10;;;;;;;5.56;58.30;98771.19;233523;1217;139784;-63
2022/04/20 06:38:17;;;;;;;82.20;48.00;;;;;;;5.65;58.24;98760.59;233738;1215;139429;-64
2022/04/20 06:43:36;;;;;;;89.70;54.30;;;;;;;5.74;58.69;98758.21;233185;1217;139360;-63
2022/04/20 06:48:58;;;;;;;76.60;45.60;;;;;;;5.82;58.59;98749.92;233548;1216;138746;-63
2022/04/20 06:59:34;;;;;;;73.70;44.80;;;;;;;5.92;58.49;98738.19;233563;1217;138911;-62
2022/04/20 07:04:55;;;;;;;74.10;44.80;;;;;;;6.00;58.46;98734.11;233600;1217;138522;-62
2022/04/20 07:10:24;;;;;;;76.20;44.10;;;;;;;6.07;58.36;98725.66;233514;1217;138693;-61
2022/04/20 07:15:29;;;;;;;148.70;89.30;;;;;;;6.13;58.53;98722.57;233492;1217;138885;-60
2022/04/20 07:20:33;;;;;;;71.40;45.50;;;;;;;6.31;59.01;98722.54;233649;1217;138713;-60
2022/04/20 07:25:40;;;;;;;70.70;43.40;;;;;;;6.61;58.75;98721.55;233475;1217;138915;-60
2022/04/20 07:30:50;;;;;;;68.60;42.20;;;;;;;6.66;58.17;98720.81;233577;1217;138503;-63
2022/04/20 07:36:11;;;;;;;66.30;42.90;;;;;;;6.66;57.80;98716.05;233582;1217;139468;-63
2022/04/20 07:41:50;;;;;;;61.30;40.50;;;;;;;6.71;58.06;98712.42;233030;1217;138868;-59
2022/04/20 07:47:11;;;;;;;64.10;38.80;;;;;;;6.77;58.11;98707.16;233126;1217;139328;-61
2022/04/20 07:52:36;;;;;;;62.70;39.80;;;;;;;6.82;57.63;98693.02;232027;1217;139838;-59
2022/04/20 07:58:00;;;;;;;69.20;42.60;;;;;;;6.90;57.99;98693.31;233403;1217;138966;-60
2022/04/20 08:03:11;;;;;;;58.10;35.50;;;;;;;7.08;57.97;98685.60;233651;1215;138719;-59
2022/04/20 08:08:16;;;;;;;55.60;37.20;;;;;;;7.17;57.45;98688.48;233324;1217;140127;-61
2022/04/20 08:18:50;;;;;;;55.20;37.40;;;;;;;7.32;56.86;98682.00;233296;1217;139771;-58
2022/04/20 08:24:15;;;;;;;51.20;33.70;;;;;;;7.39;56.84;98682.69;233367;1217;139103;-59
2022/04/20 08:29:18;;;;;;;47.00;32.30;;;;;;;7.38;56.51;98679.96;233463;1217;139062;-57
2022/04/20 08:34:21;;;;;;;47.40;31.20;;;;;;;7.36;56.36;98682.50;233476;1217;138871;-58
2022/04/20 08:39:24;;;;;;;47.40;31.50;;;;;;;7.35;56.34;98681.71;233517;1217;138708;-60
2022/04/20 08:44:28;;;;;;;51.70;31.50;;;;;;;7.37;56.50;98678.05;233641;1217;139944;-57
2022/04/20 08:49:31;;;;;;;48.50;31.00;;;;;;;7.45;56.37;98674.45;233398;1217;138721;-59
2022/04/20 08:54:35;;;;;;;52.70;33.30;;;;;;;7.48;56.45;98664.89;233379;1217;139321;-58
2022/04/20 08:59:40;;;;;;;48.50;31.40;;;;;;;7.59;56.30;98658.29;233361;1217;138334;-59
2022/04/20 09:04:44;;;;;;;46.50;30.30;;;;;;;7.65;56.22;98659.19;233576;1217;138672;-58
2022/04/20 09:09:48;;;;;;;44.10;27.50;;;;;;;7.68;55.86;98658.00;233434;1217;138593;-58
2022/04/20 09:14:52;;;;;;;46.10;31.60;;;;;;;7.69;55.94;98657.58;233551;1217;140529;-58
2022/04/20 09:19:56;;;;;;;47.10;30.80;;;;;;;7.80;56.45;98655.02;233366;1217;140169;-60
2022/04/20 09:25:06;;;;;;;39.80;27.10;;;;;;;7.90;56.10;98651.08;233473;1217;139399;-60
2022/04/20 09:30:14;;;;;;;38.40;26.30;;;;;;;7.90;56.01;98648.95;233378;1217;139281;-60
2022/04/20 09:35:20;;;;;;;38.60;25.10;;;;;;;7.91;55.79;98646.25;233338;1218;139013;-60
2022/04/20 09:40:34;;;;;;;33.50;23.20;;;;;;;7.92;55.69;98643.91;233447;1217;139155;-60
2022/04/20 09:45:37;;;;;;;56.30;40.10;;;;;;;7.88;55.50;98637.40;233519;1217;139716;-60
2022/04/20 09:50:40;;;;;;;33.40;19.00;;;;;;;7.83;55.13;98647.22;233587;1217;139833;-59
2022/04/20 09:55:43;;;;;;;29.10;18.30;;;;;;;7.75;55.04;98637.12;233475;1217;139646;-58
2022/04/20 10:00:51;;;;;;;25.00;16.50;;;;;;;7.75;55.18;98627.91;233510;1217;138870;-59
2022/04/20 10:05:56;;;;;;;21.60;14.70;;;;;;;7.83;55.05;98626.39;233550;1217;139087;-58
2022/04/20 10:11:00;;;;;;;26.70;14.90;;;;;;;7.87;54.84;98630.56;233641;1216;138610;-60
2022/04/20 10:16:09;;;;;;;24.10;14.70;;;;;;;7.87;54.59;98627.23;233567;1217;138754;-60
2022/04/20 10:21:13;;;;;;;22.30;15.20;;;;;;;7.93;54.86;98629.38;233650;1217;138446;-60
2022/04/20 10:26:20;;;;;;;21.70;14.50;;;;;;;8.02;54.78;98629.02;233560;1217;139011;-59
2022/04/20 10:32:22;;;;;;;20.90;14.10;;;;;;;8.07;54.57;98622.89;233580;1217;140492;-61
2022/04/20 10:37:29;;;;;;;23.90;14.90;;;;;;;8.19;54.53;98622.32;233289;1217;151200;-61
2022/04/20 10:43:20;;;;;;;21.50;15.20;;;;;;;8.28;54.26;98624.80;233583;1217;138708;-56
2022/04/20 10:48:23;;;;;;;25.90;15.50;;;;;;;8.35;54.19;98625.84;233064;1217;139061;-61
2022/04/20 10:53:29;;;;;;;44.20;33.40;;;;;;;8.44;54.01;98622.33;233639;1217;139360;-60
2022/04/20 10:58:35;;;;;;;24.00;15.90;;;;;;;8.55;54.00;98616.52;233490;1217;139579;-59
2022/04/20 11:04:05;;;;;;;21.50;13.50;;;;;;;8.62;53.35;98610.42;233533;1217;140451;-60
2022/04/20 11:09:42;;;;;;;17.30;12.50;;;;;;;8.65;53.05;98607.42;232576;1217;139347;-59
2022/04/20 11:20:07;;;;;;;18.30;11.70;;;;;;;8.71;52.63;98607.39;233377;1217;139257;-61
2022/04/20 11:25:11;;;;;;;16.50;11.50;;;;;;;8.79;52.53;98598.23;233451;1217;139363;-59
2022/04/20 11:30:14;;;;;;;82.70;52.70;;;;;;;8.91;52.47;98597.36;233409;1217;138970;-59
2022/04/20 11:35:17;;;;;;;33.00;17.40;;;;;;;9.09;52.64;98597.80;233536;1217;138716;-60
2022/04/20 11:40:21;;;;;;;18.70;11.50;;;;;;;9.24;52.00;98594.90;233664;1217;140439;-60
2022/04/20 11:45:32;;;;;;;15.90;11.50;;;;;;;9.28;51.50;98594.84;233676;1217;138659;-60
2022/04/20 11:50:38;;;;;;;14.10;10.50;;;;;;;9.32;51.49;98585.16;233421;1217;139106;-60
2022/04/20 11:55:46;;;;;;;19.80;11.40;;;;;;;9.33;51.11;98583.16;233487;1217;138840;-60
2022/04/20 12:01:08;;;;;;;20.00;12.10;;;;;;;9.26;50.94;98575.84;233499;1217;139133;-59
2022/04/20 12:06:12;;;;;;;21.30;12.00;;;;;;;9.28;51.08;98578.20;233508;1217;139653;-60
2022/04/20 12:11:16;;;;;;;24.50;12.30;;;;;;;9.29;50.81;98577.38;233462;1217;138837;-60
2022/04/20 12:16:19;;;;;;;18.70;11.60;;;;;;;9.28;50.66;98567.38;233134;1217;139284;-58
2022/04/20 12:22:05;;;;;;;41.80;28.50;;;;;;;9.31;50.62;98568.45;233461;1217;139010;-61
2022/04/20 12:27:19;;;;;;;19.50;13.60;;;;;;;9.33;50.57;98566.89;233167;1217;139100;-60
2022/04/20 12:32:24;;;;;;;19.50;13.10;;;;;;;9.35;50.43;98569.06;233377;1217;138284;-60
2022/04/20 12:37:31;;;;;;;19.30;12.30;;;;;;;9.31;50.25;98571.96;233480;1217;140088;-59
2022/04/20 12:42:57;;;;;;;20.30;13.30;;;;;;;9.27;50.25;98573.27;233385;1217;139733;-59
2022/04/20 12:48:10;;;;;;;16.90;12.80;;;;;;;9.26;50.27;98579.19;233379;1217;139011;-61
2022/04/20 12:53:14;;;;;;;20.50;13.10;;;;;;;9.27;50.08;98576.13;233383;1217;138883;-60
2022/04/20 13:03:39;;;;;;;18.50;12.00;;;;;;;9.33;50.16;98581.08;233612;1217;139577;-61
2022/04/20 13:08:45;;;;;;;18.60;12.50;;;;;;;9.38;49.99;98578.91;233448;1217;138691;-61
2022/04/20 13:13:49;;;;;;;15.70;11.40;;;;;;;9.41;50.01;98593.27;233525;1217;139180;-61
2022/04/20 13:18:53;;;;;;;19.20;13.20;;;;;;;9.36;49.65;98596.40;233598;1217;138242;-61
2022/04/20 13:23:56;;;;;;;17.60;12.10;;;;;;;9.33;49.67;98596.97;233483;1217;141714;-61
2022/04/20 13:28:59;;;;;;;17.90;12.70;;;;;;;9.35;49.77;98597.38;233530;1217;139997;-62
2022/04/20 13:34:02;;;;;;;18.60;13.00;;;;;;;9.40;49.94;98599.38;233596;1217;138297;-60
2022/04/20 13:39:05;;;;;;;214.20;158.10;;;;;;;9.38;49.79;98605.85;233508;1217;139844;-61
2022/04/20 13:44:08;;;;;;;23.00;16.10;;;;;;;9.42;49.99;98612.13;233484;1217;140288;-60
2022/04/20 13:49:12;;;;;;;19.70;14.70;;;;;;;9.45;49.70;98615.12;233474;1217;138610;-62
2022/04/20 13:54:15;;;;;;;18.60;13.10;;;;;;;9.46;49.70;98621.42;233475;1217;139116;-60
2022/04/20 13:59:19;;;;;;;19.00;13.30;;;;;;;9.42;49.63;98633.79;233355;1217;138080;-61
2022/04/20 14:04:22;;;;;;;21.20;13.50;;;;;;;9.37;49.58;98628.79;233472;1217;139033;-61
2022/04/20 14:09:27;;;;;;;21.50;14.20;;;;;;;9.32;49.49;98631.92;233556;1217;139190;-61
2022/04/20 14:14:32;;;;;;;22.50;15.40;;;;;;;9.32;49.44;98631.40;233459;1217;140406;-62
2022/04/20 14:19:40;;;;;;;19.60;13.10;;;;;;;9.37;49.75;98629.45;233419;1217;139613;-60
2022/04/20 14:24:45;;;;;;;17.90;12.60;;;;;;;9.38;49.68;98620.40;233393;1216;138786;-60
2022/04/20 14:35:12;;;;;;;16.90;13.10;;;;;;;9.41;49.59;98615.58;233465;1217;139224;-59
2022/04/20 14:40:15;;;;;;;18.00;12.10;;;;;;;9.43;49.61;98611.88;233461;1217;139324;-61
2022/04/20 14:45:23;;;;;;;16.40;11.90;;;;;;;9.39;49.35;98615.55;233594;1217;139103;-61
2022/04/20 14:50:26;;;;;;;16.40;11.10;;;;;;;9.33;49.31;98620.16;233309;1217;138827;-60
2022/04/20 14:55:30;;;;;;;18.10;11.30;;;;;;;9.31;49.25;98622.61;233410;1217;139354;-60
2022/04/20 15:00:38;;;;;;;18.20;11.80;;;;;;;9.31;49.61;98631.45;233420;1217;139312;-58
2022/04/20 15:05:42;;;;;;;16.20;10.40;;;;;;;9.29;49.31;98630.00;233392;1217;139227;-61
2022/04/20 15:10:45;;;;;;;12.40;9.50;;;;;;;9.24;49.38;98626.03;233286;1217;139203;-62
2022/04/20 15:15:48;;;;;;;17.20;10.30;;;;;;;9.21;49.38;98626.77;233620;1217;138828;-61
2022/04/20 15:20:51;;;;;;;14.10;9.50;;;;;;;9.18;49.51;98634.05;233379;1217;138938;-62
2022/04/20 15:26:18;;;;;;;14.30;9.40;;;;;;;9.16;49.46;98634.89;233441;1217;140154;-61
2022/04/20 15:31:22;;;;;;;14.60;10.40;;;;;;;9.13;49.52;98641.05;233442;1217;138912;-61
2022/04/20 15:36:25;;;;;;;13.30;9.30;;;;;;;9.10;49.46;98631.55;233327;1217;140326;-61
2022/04/20 15:41:28;;;;;;;17.80;10.90;;;;;;;9.08;49.66;98630.78;233324;1217;142115;-62
2022/04/20 15:46:32;;;;;;;14.40;9.60;;;;;;;9.06;49.74;98632.68;233511;1216;138986;-61
2022/04/20 15:51:35;;;;;;;13.80;9.80;;;;;;;9.07;49.77;98636.30;233549;1217;139583;-62
2022/04/20 16:01:59;;;;;;;13.40;10.40;;;;;;;9.12;50.12;98641.50;233500;1217;138743;-64
2022/04/20 16:07:05;;;;;;;256.00;171.30;;;;;;;9.09;50.19;98644.84;233437;1217;139114;-63
2022/04/20 16:12:09;;;;;;;20.10;15.00;;;;;;;9.16;50.45;98651.52;233417;1217;139138;-60
2022/04/20 16:17:13;;;;;;;19.60;11.40;;;;;;;9.16;50.34;98650.45;233432;1217;139573;-63
2022/04/20 16:22:16;;;;;;;18.50;11.10;;;;;;;9.14;50.30;98654.83;233525;1217;138724;-63
2022/04/20 16:27:19;;;;;;;126.00;92.60;;;;;;;9.16;50.72;98661.39;233569;1217;138603;-62
2022/04/20 16:32:22;;;;;;;19.10;13.70;;;;;;;9.24;50.93;98661.30;233549;1217;139093;-61
2022/04/20 16:37:25;;;;;;;17.10;12.80;;;;;;;9.21;50.86;98665.67;233342;1217;139064;-61
2022/04/20 16:42:29;;;;;;;19.30;12.40;;;;;;;9.17;50.89;98669.30;233369;1217;138928;-63
2022/04/20 16:47:32;;;;;;;18.00;12.20;;;;;;;9.17;50.93;98673.00;233363;1217;139032;-62
2022/04/20 16:52:39;;;;;;;16.50;12.20;;;;;;;9.16;50.93;98671.52;233546;1217;139536;-63
2022/04/20 16:57:43;;;;;;;17.40;11.90;;;;;;;9.11;51.01;98669.88;233527;1217;138822;-62
2022/04/20 17:02:46;;;;;;;20.10;12.10;;;;;;;9.06;51.00;98677.27;233521;1217;140481;-64
2022/04/20 17:07:49;;;;;;;14.90;11.50;;;;;;;9.02;51.10;98683.33;233412;1215;138792;-61
2022/04/20 17:12:52;;;;;;;18.00;13.00;;;;;;;8.99;51.22;98683.55;233414;1217;140376;-61
2022/04/20 17:17:55;;;;;;;17.00;12.40;;;;;;;8.98;51.39;98685.00;233515;1217;139069;-62
2022/04/20 17:28:20;;;;;;;18.10;13.10;;;;;;;8.92;51.67;98700.41;233404;1216;140249;-62
2022/04/20 17:33:23;;;;;;;18.40;13.10;;;;;;;8.90;51.77;98704.10;233512;1217;138316;-60
2022/04/20 17:38:26;;;;;;;25.30;13.80;;;;;;;8.88;51.75;98701.71;233375;1217;139055;-62
2022/04/20 17:43:29;;;;;;;16.90;13.10;;;;;;;8.85;51.90;98699.98;233293;1217;139100;-61
2022/04/20 17:48:33;;;;;;;61.80;44.90;;;;;;;8.93;53.01;98695.02;233370;1215;139663;-62
2022/04/20 17:53:36;;;;;;;25.10;17.20;;;;;;;9.28;53.02;98697.81;233344;1217;139087;-64
2022/04/20 17:58:39;;;;;;;21.60;17.30;;;;;;;9.33;52.35;98694.02;233205;1218;138729;-62
2022/04/20 18:03:42;;;;;;;25.10;18.80;;;;;;;9.23;52.07;98691.92;233536;1217;139455;-63
2022/04/20 18:08:46;;;;;;;23.60;18.60;;;;;;;9.12;52.02;98686.26;233405;1217;139563;-62
2022/04/20 18:13:50;;;;;;;22.00;17.80;;;;;;;9.01;52.17;98691.35;233260;1217;138827;-61
2022/04/20 18:18:53;;;;;;;27.60;19.60;;;;;;;8.95;52.28;98685.14;233429;1217;138396;-61
2022/04/20 18:23:57;;;;;;;73.90;54.70;;;;;;;9.01;53.09;98682.52;233049;1217;141108;-61
2022/04/20 18:29:01;;;;;;;82.90;53.20;;;;;;;9.17;52.87;98677.84;233297;1217;139231;-62
2022/04/20 18:34:04;;;;;;;28.90;20.50;;;;;;;9.21;53.11;98667.65;233544;1216;139825;-62
2022/04/20 18:39:07;;;;;;;27.70;19.70;;;;;;;9.20;52.65;98664.17;233492;1217;139660;-63
2022/04/20 18:44:10;;;;;;;95.70;72.70;;;;;;;9.11;52.66;98654.48;233477;1217;139110;-63
2022/04/20 18:49:14;;;;;;;35.10;26.50;;;;;;;9.08;52.97;98646.34;233482;1217;139151;-61
2022/04/20 18:59:41;;;;;;;26.70;18.90;;;;;;;9.01;52.88;98624.29;233476;1217;140507;-62
2022/04/20 19:04:47;;;;;;;23.70;19.00;;;;;;;8.93;52.90;98621.61;233354;1217;140392;-60
2022/04/20 19:09:52;;;;;;;;;;;;;;;8.88;53.05;98623.15;233056;1217;141533;-60
2022/04/20 19:14:56;;;;;;;27.90;20.70;;;;;;;8.78;53.18;98620.59;233675;1217;125642;-61
2022/04/20 19:20:00;;;;;;;28.90;20.60;;;;;;;8.70;53.16;98631.48;232778;1217;139643;-60
2022/04/20 19:25:06;;;;;;;28.80;21.20;;;;;;;8.65;53.33;98650.21;233481;1217;138231;-62
2022/04/20 19:30:09;;;;;;;27.70;20.90;;;;;;;8.63;53.51;98651.05;233480;1217;138812;-61
2022/04/20 19:35:14;;;;;;;24.80;20.60;;;;;;;8.61;53.57;98652.55;233530;1217;138891;-63
2022/04/20 19:40:17;;;;;;;26.80;19.90;;;;;;;8.57;53.69;98659.23;233047;1217;139017;-62
2022/04/20 19:45:26;;;;;;;27.60;21.00;;;;;;;8.54;53.68;98666.11;233581;1217;138985;-62
2022/04/20 19:50:30;;;;;;;29.90;23.60;;;;;;;8.50;53.87;98671.25;233572;1217;138971;-63
2022/04/20 19:55:34;;;;;;;28.10;22.40;;;;;;;8.50;54.12;98673.20;233541;1217;139343;-62
2022/04/20 20:00:48;;;;;;;27.40;21.90;;;;;;;8.49;54.18;98675.74;233536;1217;138605;-64
2022/04/20 20:11:15;;;;;;;31.80;23.60;;;;;;;8.48;54.35;98676.30;233625;1215;139093;-62
2022/04/20 20:16:19;;;;;;;33.50;24.30;;;;;;;8.49;54.40;98680.89;233648;1216;139009;-60
2022/04/20 20:21:23;;;;;;;37.30;26.50;;;;;;;8.48;54.47;98679.54;233681;1217;139217;-63
2022/04/20 20:31:52;;;;;;;36.20;27.30;;;;;;;8.43;54.70;98684.39;233563;1217;139224;-62
2022/04/20 20:36:58;;;;;;;35.00;25.70;;;;;;;8.44;54.63;98682.45;233561;1217;139075;-60
2022/04/20 20:42:01;;;;;;;34.60;25.00;;;;;;;8.44;54.66;98677.30;233749;1217;138845;-61
2022/04/20 20:47:05;;;;;;;34.80;25.40;;;;;;;8.43;54.84;98671.50;233685;1217;138863;-64
2022/04/20 20:52:10;;;;;;;34.20;24.30;;;;;;;8.43;54.87;98672.75;233670;1217;140822;-63
2022/04/20 20:57:16;;;;;;;33.60;24.40;;;;;;;8.44;54.84;98669.52;233566;1217;139078;-62
2022/04/20 21:02:19;;;;;;;30.40;22.80;;;;;;;8.43;55.11;98674.52;233526;1217;138546;-62
2022/04/20 21:07:22;;;;;;;30.10;24.00;;;;;;;8.39;55.08;98675.98;233574;1217;139840;-62
2022/04/20 21:12:25;;;;;;;34.10;25.90;;;;;;;8.36;55.29;98674.73;233634;1217;139658;-61
2022/04/20 21:17:28;;;;;;;38.70;26.80;;;;;;;8.36;55.18;98682.67;233611;1217;138794;-60
2022/04/20 21:22:31;;;;;;;35.10;27.30;;;;;;;8.36;55.20;98675.11;233550;1217;138504;-61
2022/04/20 21:27:35;;;;;;;36.50;29.20;;;;;;;8.33;55.37;98682.52;233625;1217;138722;-61
2022/04/20 21:32:38;;;;;;;33.90;25.80;;;;;;;8.29;55.45;98681.52;233535;1217;139021;-60
2022/04/20 21:37:41;;;;;;;31.60;24.60;;;;;;;8.28;55.66;98679.40;233529;1217;138971;-60
2022/04/20 21:42:44;;;;;;;31.10;23.40;;;;;;;8.28;55.61;98679.59;233187;1217;138928;-60
2022/04/20 21:47:47;;;;;;;32.10;23.90;;;;;;;8.26;55.59;98670.52;233475;1219;139055;-61
2022/04/20 21:52:51;;;;;;;33.50;23.40;;;;;;;8.26;55.84;98672.30;233560;1217;139193;-61
2022/04/20 21:57:55;;;;;;;30.30;23.60;;;;;;;8.25;55.91;98676.07;233561;1217;138551;-59
2022/04/20 22:08:26;;;;;;;34.30;24.60;;;;;;;8.27;55.77;98671.73;233431;1219;138808;-62
2022/04/20 22:13:30;;;;;;;32.80;24.10;;;;;;;8.25;55.64;98671.65;233583;1217;139050;-62
2022/04/20 22:18:33;;;;;;;33.70;23.50;;;;;;;8.22;55.73;98667.77;233027;1217;139262;-61
2022/04/20 22:23:36;;;;;;;31.10;23.40;;;;;;;8.19;55.64;98673.58;233670;1217;139037;-63
2022/04/20 22:28:39;;;;;;;36.00;24.40;;;;;;;8.17;55.73;98675.52;233397;1217;138939;-62
2022/04/20 22:33:42;;;;;;;35.30;23.90;;;;;;;8.15;55.95;98672.77;233581;1217;139999;-62
2022/04/20 22:38:45;;;;;;;37.50;24.40;;;;;;;8.15;56.07;98667.84;233533;1217;139608;-62
2022/04/20 22:43:50;;;;;;;34.70;23.90;;;;;;;8.15;56.20;98668.02;233568;1217;138712;-61
2022/04/20 22:48:53;;;;;;;36.30;23.90;;;;;;;8.14;56.23;98667.35;231618;1217;138451;-60
2022/04/20 22:53:57;;;;;;;35.10;24.60;;;;;;;8.12;56.19;98665.01;233562;1217;138871;-62
2022/04/20 22:59:00;;;;;;;35.40;23.80;;;;;;;8.11;56.22;98666.30;233502;1217;138818;-59
2022/04/20 23:04:04;;;;;;;35.20;24.10;;;;;;;8.12;56.49;98652.29;233628;1217;139432;-61
2022/04/20 23:09:07;;;;;;;34.20;23.40;;;;;;;8.12;56.46;98650.15;233563;1217;140487;-62
2022/04/20 23:14:10;;;;;;;34.60;23.90;;;;;;;8.13;56.45;98644.46;233618;1217;139233;-62
2022/04/20 23:19:13;;;;;;;33.80;24.00;;;;;;;8.14;56.68;98643.15;233645;1217;139114;-62
2022/04/20 23:24:16;;;;;;;36.30;24.90;;;;;;;8.13;56.49;98643.88;233615;1217;139386;-61
2022/04/20 23:29:19;;;;;;;37.10;25.40;;;;;;;8.13;56.54;98635.27;233494;1217;139394;-63
2022/04/20 23:34:23;;;;;;;35.00;24.80;;;;;;;8.12;56.77;98633.71;233418;1217;138557;-60
2022/04/20 23:39:26;;;;;;;38.70;26.40;;;;;;;8.12;56.83;98632.48;232627;1217;138557;-60
2022/04/20 23:44:29;;;;;;;36.60;26.90;;;;;;;8.10;56.87;98625.72;232777;1217;138969;-61
2022/04/20 23:49:32;;;;;;;41.50;27.60;;;;;;;8.08;56.99;98622.98;233549;1217;140871;-61
2022/04/20 23:54:36;;;;;;;40.50;26.90;;;;;;;8.05;56.79;98623.84;233527;1217;138869;-61
2022/04/20 23:59:39;;;;;;;42.80;29.40;;;;;;;8.04;57.01;98624.46;233063;1217;139098;-61
